sensor_id;sensor_type;location;lat;lon;timestamp;P1;durP1;ratioP1;P2;durP2;ratioP2
78312;SDS011;67568;47.438;21.408;2023-07-13T00:01:32;15.60;;;8.68;;
78312;SDS011;67568;47.438;21.408;2023-07-13T00:03:59;13.93;;;8.68;;
78312;SDS011;67568;47.438;21.408;2023-07-13T00:06:26;14.63;;;8.90;;
78312;SDS011;67568;47.438;21.408;2023-07-13T00:08:53;14.73;;;8.30;;
78312;SDS011;67568;47.438;21.408;2023-07-13T00:11:20;15.43;;;9.60;;
78312;SDS011;67568;47.438;21.408;2023-07-13T00:13:50;14.95;;;9.50;;
78312;SDS011;67568;47.438;21.408;2023-07-13T00:16:17;14.60;;;9.70;;
78312;SDS011;67568;47.438;21.408;2023-07-13T00:18:44;15.47;;;9.27;;
78312;SDS011;67568;47.438;21.408;2023-07-13T00:21:12;15.60;;;9.18;;
78312;SDS011;67568;47.438;21.408;2023-07-13T00:23:39;15.73;;;9.45;;
78312;SDS011;67568;47.438;21.408;2023-07-13T00:26:08;14.10;;;8.50;;
78312;SDS011;67568;47.438;21.408;2023-07-13T00:28:38;13.32;;;9.45;;
78312;SDS011;67568;47.438;21.408;2023-07-13T00:31:05;15.97;;;9.23;;
78312;SDS011;67568;47.438;21.408;2023-07-13T00:33:34;13.45;;;8.77;;
78312;SDS011;67568;47.438;21.408;2023-07-13T00:36:02;18.35;;;9.55;;
78312;SDS011;67568;47.438;21.408;2023-07-13T00:38:29;14.52;;;9.23;;
78312;SDS011;67568;47.438;21.408;2023-07-13T00:40:56;19.10;;;9.43;;
78312;SDS011;67568;47.438;21.408;2023-07-13T00:43:27;14.30;;;9.30;;
78312;SDS011;67568;47.438;21.408;2023-07-13T00:48:42;13.50;;;8.40;;
78312;SDS011;67568;47.438;21.408;2023-07-13T00:51:11;15.57;;;9.13;;
78312;SDS011;67568;47.438;21.408;2023-07-13T00:53:40;14.05;;;8.88;;
78312;SDS011;67568;47.438;21.408;2023-07-13T00:56:10;16.33;;;9.63;;
78312;SDS011;67568;47.438;21.408;2023-07-13T00:58:37;14.35;;;9.25;;
78312;SDS011;67568;47.438;21.408;2023-07-13T01:01:07;18.92;;;9.35;;
78312;SDS011;67568;47.438;21.408;2023-07-13T01:03:34;13.95;;;8.50;;
78312;SDS011;67568;47.438;21.408;2023-07-13T01:06:02;15.65;;;9.40;;
78312;SDS011;67568;47.438;21.408;2023-07-13T01:08:29;16.33;;;10.43;;
78312;SDS011;67568;47.438;21.408;2023-07-13T01:10:56;16.38;;;9.85;;
78312;SDS011;67568;47.438;21.408;2023-07-13T01:13:24;14.63;;;9.30;;
78312;SDS011;67568;47.438;21.408;2023-07-13T01:15:52;14.48;;;9.60;;
78312;SDS011;67568;47.438;21.408;2023-07-13T01:18:21;13.95;;;9.65;;
78312;SDS011;67568;47.438;21.408;2023-07-13T01:23:25;16.30;;;10.27;;
78312;SDS011;67568;47.438;21.408;2023-07-13T01:25:53;16.42;;;9.77;;
78312;SDS011;67568;47.438;21.408;2023-07-13T01:28:20;14.95;;;9.85;;
78312;SDS011;67568;47.438;21.408;2023-07-13T01:30:48;18.42;;;10.20;;
78312;SDS011;67568;47.438;21.408;2023-07-13T01:33:17;15.00;;;9.20;;
78312;SDS011;67568;47.438;21.408;2023-07-13T01:35:44;18.38;;;10.32;;
78312;SDS011;67568;47.438;21.408;2023-07-13T01:38:13;16.20;;;10.23;;
78312;SDS011;67568;47.438;21.408;2023-07-13T01:40:41;14.70;;;10.25;;
78312;SDS011;67568;47.438;21.408;2023-07-13T01:43:12;19.35;;;10.90;;
78312;SDS011;67568;47.438;21.408;2023-07-13T01:45:39;16.23;;;11.27;;
78312;SDS011;67568;47.438;21.408;2023-07-13T01:48:06;14.32;;;10.00;;
78312;SDS011;67568;47.438;21.408;2023-07-13T01:50:33;15.32;;;10.38;;
78312;SDS011;67568;47.438;21.408;2023-07-13T01:53:01;15.90;;;11.35;;
78312;SDS011;67568;47.438;21.408;2023-07-13T01:55:30;16.42;;;11.15;;
78312;SDS011;67568;47.438;21.408;2023-07-13T01:57:57;14.40;;;10.40;;
78312;SDS011;67568;47.438;21.408;2023-07-13T02:00:24;16.00;;;9.88;;
78312;SDS011;67568;47.438;21.408;2023-07-13T02:02:51;19.80;;;10.60;;
78312;SDS011;67568;47.438;21.408;2023-07-13T02:05:25;18.67;;;9.40;;
78312;SDS011;67568;47.438;21.408;2023-07-13T02:07:52;18.42;;;10.75;;
78312;SDS011;67568;47.438;21.408;2023-07-13T02:10:19;17.27;;;10.27;;
78312;SDS011;67568;47.438;21.408;2023-07-13T02:13:02;16.25;;;9.55;;
78312;SDS011;67568;47.438;21.408;2023-07-13T02:15:30;17.63;;;9.30;;
78312;SDS011;67568;47.438;21.408;2023-07-13T02:17:57;15.15;;;9.88;;
78312;SDS011;67568;47.438;21.408;2023-07-13T02:20:24;13.20;;;9.77;;
78312;SDS011;67568;47.438;21.408;2023-07-13T02:22:52;20.57;;;10.50;;
78312;SDS011;67568;47.438;21.408;2023-07-13T02:25:25;15.70;;;9.07;;
78312;SDS011;67568;47.438;21.408;2023-07-13T02:27:52;14.88;;;9.68;;
78312;SDS011;67568;47.438;21.408;2023-07-13T02:30:19;17.95;;;9.82;;
78312;SDS011;67568;47.438;21.408;2023-07-13T02:32:45;16.10;;;9.73;;
78312;SDS011;67568;47.438;21.408;2023-07-13T02:35:12;16.40;;;9.37;;
78312;SDS011;67568;47.438;21.408;2023-07-13T02:37:40;15.80;;;9.88;;
78312;SDS011;67568;47.438;21.408;2023-07-13T02:40:07;15.23;;;9.43;;
78312;SDS011;67568;47.438;21.408;2023-07-13T02:42:34;15.40;;;9.77;;
78312;SDS011;67568;47.438;21.408;2023-07-13T02:45:05;13.57;;;9.20;;
78312;SDS011;67568;47.438;21.408;2023-07-13T02:47:34;14.10;;;9.33;;
78312;SDS011;67568;47.438;21.408;2023-07-13T02:50:02;16.02;;;9.43;;
78312;SDS011;67568;47.438;21.408;2023-07-13T02:52:30;16.17;;;9.55;;
78312;SDS011;67568;47.438;21.408;2023-07-13T02:54:56;16.10;;;10.38;;
78312;SDS011;67568;47.438;21.408;2023-07-13T02:57:23;16.10;;;9.90;;
78312;SDS011;67568;47.438;21.408;2023-07-13T02:59:50;15.07;;;11.10;;
78312;SDS011;67568;47.438;21.408;2023-07-13T03:02:17;17.27;;;11.40;;
78312;SDS011;67568;47.438;21.408;2023-07-13T03:04:43;16.67;;;10.43;;
78312;SDS011;67568;47.438;21.408;2023-07-13T03:07:10;16.08;;;10.32;;
78312;SDS011;67568;47.438;21.408;2023-07-13T03:09:37;15.13;;;10.82;;
78312;SDS011;67568;47.438;21.408;2023-07-13T03:12:06;19.13;;;11.53;;
78312;SDS011;67568;47.438;21.408;2023-07-13T03:14:36;16.25;;;10.93;;
78312;SDS011;67568;47.438;21.408;2023-07-13T03:17:03;15.80;;;11.27;;
78312;SDS011;67568;47.438;21.408;2023-07-13T03:19:30;15.55;;;10.85;;
78312;SDS011;67568;47.438;21.408;2023-07-13T03:21:57;17.15;;;11.27;;
78312;SDS011;67568;47.438;21.408;2023-07-13T03:24:24;16.43;;;11.17;;
78312;SDS011;67568;47.438;21.408;2023-07-13T03:26:51;16.27;;;10.38;;
78312;SDS011;67568;47.438;21.408;2023-07-13T03:29:18;16.08;;;10.55;;
78312;SDS011;67568;47.438;21.408;2023-07-13T03:31:45;16.08;;;11.23;;
78312;SDS011;67568;47.438;21.408;2023-07-13T03:34:11;19.27;;;11.20;;
78312;SDS011;67568;47.438;21.408;2023-07-13T03:36:38;15.47;;;9.87;;
78312;SDS011;67568;47.438;21.408;2023-07-13T03:39:05;16.90;;;10.85;;
78312;SDS011;67568;47.438;21.408;2023-07-13T03:41:35;19.42;;;11.45;;
78312;SDS011;67568;47.438;21.408;2023-07-13T03:44:02;17.58;;;11.20;;
78312;SDS011;67568;47.438;21.408;2023-07-13T03:46:29;21.35;;;11.40;;
78312;SDS011;67568;47.438;21.408;2023-07-13T03:48:56;15.23;;;10.30;;
78312;SDS011;67568;47.438;21.408;2023-07-13T03:51:23;16.35;;;10.65;;
78312;SDS011;67568;47.438;21.408;2023-07-13T03:53:50;18.75;;;11.85;;
78312;SDS011;67568;47.438;21.408;2023-07-13T03:56:18;17.67;;;11.27;;
78312;SDS011;67568;47.438;21.408;2023-07-13T03:58:46;16.05;;;11.00;;
78312;SDS011;67568;47.438;21.408;2023-07-13T04:01:15;16.33;;;10.57;;
78312;SDS011;67568;47.438;21.408;2023-07-13T04:03:45;16.48;;;11.13;;
78312;SDS011;67568;47.438;21.408;2023-07-13T04:06:18;21.42;;;11.00;;
78312;SDS011;67568;47.438;21.408;2023-07-13T04:08:48;17.38;;;11.45;;
78312;SDS011;67568;47.438;21.408;2023-07-13T04:11:17;18.67;;;11.40;;
78312;SDS011;67568;47.438;21.408;2023-07-13T04:13:47;17.90;;;12.30;;
78312;SDS011;67568;47.438;21.408;2023-07-13T04:16:15;23.23;;;12.30;;
78312;SDS011;67568;47.438;21.408;2023-07-13T04:18:42;18.00;;;11.38;;
78312;SDS011;67568;47.438;21.408;2023-07-13T04:21:10;22.85;;;11.95;;
78312;SDS011;67568;47.438;21.408;2023-07-13T04:23:40;20.15;;;11.95;;
78312;SDS011;67568;47.438;21.408;2023-07-13T04:26:07;16.47;;;10.80;;
78312;SDS011;67568;47.438;21.408;2023-07-13T04:28:34;19.42;;;11.38;;
78312;SDS011;67568;47.438;21.408;2023-07-13T04:31:01;21.45;;;11.40;;
78312;SDS011;67568;47.438;21.408;2023-07-13T04:33:28;19.13;;;11.60;;
78312;SDS011;67568;47.438;21.408;2023-07-13T04:35:55;19.27;;;11.65;;
78312;SDS011;67568;47.438;21.408;2023-07-13T04:38:24;17.90;;;11.63;;
78312;SDS011;67568;47.438;21.408;2023-07-13T04:40:54;17.77;;;10.98;;
78312;SDS011;67568;47.438;21.408;2023-07-13T04:43:25;17.98;;;12.05;;
78312;SDS011;67568;47.438;21.408;2023-07-13T04:45:54;18.00;;;11.38;;
78312;SDS011;67568;47.438;21.408;2023-07-13T04:48:21;21.15;;;12.73;;
78312;SDS011;67568;47.438;21.408;2023-07-13T04:50:54;16.97;;;12.77;;
78312;SDS011;67568;47.438;21.408;2023-07-13T04:53:24;20.75;;;12.45;;
78312;SDS011;67568;47.438;21.408;2023-07-13T04:55:51;22.23;;;12.85;;
78312;SDS011;67568;47.438;21.408;2023-07-13T04:58:21;20.23;;;13.25;;
78312;SDS011;67568;47.438;21.408;2023-07-13T05:00:50;24.65;;;13.50;;
78312;SDS011;67568;47.438;21.408;2023-07-13T05:03:17;18.47;;;12.20;;
78312;SDS011;67568;47.438;21.408;2023-07-13T05:06:07;20.70;;;12.60;;
78312;SDS011;67568;47.438;21.408;2023-07-13T05:08:35;19.17;;;12.55;;
78312;SDS011;67568;47.438;21.408;2023-07-13T05:11:02;16.83;;;12.23;;
78312;SDS011;67568;47.438;21.408;2023-07-13T05:13:30;19.02;;;12.50;;
78312;SDS011;67568;47.438;21.408;2023-07-13T05:15:57;18.50;;;11.77;;
78312;SDS011;67568;47.438;21.408;2023-07-13T05:18:27;19.55;;;11.77;;
78312;SDS011;67568;47.438;21.408;2023-07-13T05:20:56;17.95;;;11.93;;
78312;SDS011;67568;47.438;21.408;2023-07-13T05:23:33;16.52;;;11.23;;
78312;SDS011;67568;47.438;21.408;2023-07-13T05:26:02;18.33;;;11.57;;
78312;SDS011;67568;47.438;21.408;2023-07-13T05:28:35;21.93;;;10.97;;
78312;SDS011;67568;47.438;21.408;2023-07-13T05:31:02;18.23;;;11.27;;
78312;SDS011;67568;47.438;21.408;2023-07-13T05:33:34;25.58;;;12.00;;
78312;SDS011;67568;47.438;21.408;2023-07-13T05:36:01;26.77;;;11.73;;
78312;SDS011;67568;47.438;21.408;2023-07-13T05:38:28;22.33;;;11.90;;
78312;SDS011;67568;47.438;21.408;2023-07-13T05:40:55;15.43;;;11.33;;
78312;SDS011;67568;47.438;21.408;2023-07-13T05:43:23;17.23;;;11.25;;
78312;SDS011;67568;47.438;21.408;2023-07-13T05:45:53;18.45;;;12.40;;
78312;SDS011;67568;47.438;21.408;2023-07-13T05:48:26;19.30;;;12.05;;
78312;SDS011;67568;47.438;21.408;2023-07-13T05:50:56;15.23;;;10.93;;
78312;SDS011;67568;47.438;21.408;2023-07-13T05:53:22;21.03;;;12.77;;
78312;SDS011;67568;47.438;21.408;2023-07-13T05:55:49;18.88;;;12.30;;
78312;SDS011;67568;47.438;21.408;2023-07-13T05:58:17;23.95;;;13.93;;
78312;SDS011;67568;47.438;21.408;2023-07-13T06:00:44;20.00;;;13.27;;
78312;SDS011;67568;47.438;21.408;2023-07-13T06:03:15;22.63;;;13.95;;
78312;SDS011;67568;47.438;21.408;2023-07-13T06:05:42;19.93;;;13.87;;
78312;SDS011;67568;47.438;21.408;2023-07-13T06:08:09;18.58;;;13.65;;
78312;SDS011;67568;47.438;21.408;2023-07-13T06:10:38;17.95;;;12.23;;
78312;SDS011;67568;47.438;21.408;2023-07-13T06:13:05;21.13;;;12.00;;
78312;SDS011;67568;47.438;21.408;2023-07-13T08:23:09;12.70;;;5.93;;
78312;SDS011;67568;47.438;21.408;2023-07-13T08:25:38;12.05;;;5.50;;
78312;SDS011;67568;47.438;21.408;2023-07-13T08:28:05;13.43;;;6.05;;
78312;SDS011;67568;47.438;21.408;2023-07-13T08:30:32;14.50;;;6.10;;
78312;SDS011;67568;47.438;21.408;2023-07-13T08:32:59;13.30;;;6.50;;
78312;SDS011;67568;47.438;21.408;2023-07-13T08:35:26;15.10;;;6.47;;
78312;SDS011;67568;47.438;21.408;2023-07-13T08:37:53;12.70;;;6.68;;
78312;SDS011;67568;47.438;21.408;2023-07-13T08:40:19;17.38;;;7.07;;
78312;SDS011;67568;47.438;21.408;2023-07-13T08:42:57;14.60;;;7.33;;
78312;SDS011;67568;47.438;21.408;2023-07-13T08:45:43;14.38;;;6.43;;
78312;SDS011;67568;47.438;21.408;2023-07-13T08:50:57;9.43;;;4.90;;
78312;SDS011;67568;47.438;21.408;2023-07-13T08:53:37;9.15;;;4.93;;
78312;SDS011;67568;47.438;21.408;2023-07-13T08:56:09;10.03;;;4.23;;
78312;SDS011;67568;47.438;21.408;2023-07-13T08:58:43;8.98;;;3.80;;
78312;SDS011;67568;47.438;21.408;2023-07-13T09:04:41;9.35;;;3.47;;
78312;SDS011;67568;47.438;21.408;2023-07-13T09:10:23;7.53;;;3.43;;
78312;SDS011;67568;47.438;21.408;2023-07-13T09:15:47;6.53;;;3.47;;
78312;SDS011;67568;47.438;21.408;2023-07-13T09:18:30;7.85;;;3.58;;
78312;SDS011;67568;47.438;21.408;2023-07-13T09:21:07;7.50;;;3.42;;
78312;SDS011;67568;47.438;21.408;2023-07-13T09:23:47;7.10;;;3.23;;
78312;SDS011;67568;47.438;21.408;2023-07-13T09:26:21;6.90;;;3.30;;
78312;SDS011;67568;47.438;21.408;2023-07-13T09:28:57;8.13;;;3.70;;
78312;SDS011;67568;47.438;21.408;2023-07-13T09:31:33;7.68;;;3.70;;
78312;SDS011;67568;47.438;21.408;2023-07-13T09:34:11;10.73;;;3.58;;
78312;SDS011;67568;47.438;21.408;2023-07-13T09:36:40;8.57;;;3.90;;
78312;SDS011;67568;47.438;21.408;2023-07-13T09:44:56;8.52;;;3.80;;
78312;SDS011;67568;47.438;21.408;2023-07-13T09:47:29;7.63;;;3.70;;
78312;SDS011;67568;47.438;21.408;2023-07-13T09:50:02;7.83;;;3.57;;
78312;SDS011;67568;47.438;21.408;2023-07-13T09:52:40;10.60;;;3.75;;
78312;SDS011;67568;47.438;21.408;2023-07-13T09:55:26;7.22;;;3.65;;
78312;SDS011;67568;47.438;21.408;2023-07-13T09:58:15;8.25;;;4.10;;
78312;SDS011;67568;47.438;21.408;2023-07-13T10:00:43;8.70;;;3.90;;
78312;SDS011;67568;47.438;21.408;2023-07-13T10:03:22;9.23;;;4.00;;
78312;SDS011;67568;47.438;21.408;2023-07-13T10:05:51;7.88;;;4.10;;
78312;SDS011;67568;47.438;21.408;2023-07-13T10:10:58;9.02;;;4.32;;
78312;SDS011;67568;47.438;21.408;2023-07-13T10:13:35;7.57;;;4.15;;
78312;SDS011;67568;47.438;21.408;2023-07-13T10:16:11;7.60;;;3.67;;
78312;SDS011;67568;47.438;21.408;2023-07-13T10:18:53;8.02;;;3.65;;
78312;SDS011;67568;47.438;21.408;2023-07-13T10:21:28;9.02;;;4.20;;
78312;SDS011;67568;47.438;21.408;2023-07-13T10:24:23;9.00;;;4.10;;
78312;SDS011;67568;47.438;21.408;2023-07-13T10:27:05;9.18;;;4.18;;
78312;SDS011;67568;47.438;21.408;2023-07-13T10:30:18;8.27;;;3.90;;
78312;SDS011;67568;47.438;21.408;2023-07-13T10:32:53;8.32;;;4.30;;
78312;SDS011;67568;47.438;21.408;2023-07-13T10:35:21;7.65;;;3.80;;
78312;SDS011;67568;47.438;21.408;2023-07-13T10:38:05;8.52;;;3.50;;
78312;SDS011;67568;47.438;21.408;2023-07-13T10:40:34;7.45;;;3.97;;
78312;SDS011;67568;47.438;21.408;2023-07-13T10:43:07;8.27;;;3.90;;
78312;SDS011;67568;47.438;21.408;2023-07-13T10:45:41;6.53;;;3.58;;
78312;SDS011;67568;47.438;21.408;2023-07-13T10:48:13;7.53;;;3.72;;
78312;SDS011;67568;47.438;21.408;2023-07-13T10:50:45;8.38;;;4.13;;
78312;SDS011;67568;47.438;21.408;2023-07-13T10:53:19;8.98;;;4.45;;
78312;SDS011;67568;47.438;21.408;2023-07-13T10:55:58;8.63;;;4.03;;
78312;SDS011;67568;47.438;21.408;2023-07-13T10:58:41;8.90;;;3.65;;
78312;SDS011;67568;47.438;21.408;2023-07-13T11:03:50;6.97;;;3.65;;
78312;SDS011;67568;47.438;21.408;2023-07-13T11:08:57;7.90;;;3.60;;
78312;SDS011;67568;47.438;21.408;2023-07-13T11:11:44;6.70;;;3.70;;
78312;SDS011;67568;47.438;21.408;2023-07-13T11:14:28;7.57;;;3.40;;
78312;SDS011;67568;47.438;21.408;2023-07-13T11:17:00;6.47;;;3.10;;
78312;SDS011;67568;47.438;21.408;2023-07-13T11:33:28;7.38;;;3.60;;
78312;SDS011;67568;47.438;21.408;2023-07-13T11:36:13;6.73;;;3.37;;
78312;SDS011;67568;47.438;21.408;2023-07-13T11:38:56;8.55;;;3.40;;
78312;SDS011;67568;47.438;21.408;2023-07-13T11:41:45;7.57;;;3.33;;
78312;SDS011;67568;47.438;21.408;2023-07-13T11:44:17;8.02;;;3.10;;
78312;SDS011;67568;47.438;21.408;2023-07-13T11:46:51;7.22;;;3.10;;
78312;SDS011;67568;47.438;21.408;2023-07-13T11:49:22;5.90;;;2.93;;
78312;SDS011;67568;47.438;21.408;2023-07-13T11:51:51;6.68;;;2.90;;
78312;SDS011;67568;47.438;21.408;2023-07-13T11:56:54;6.40;;;3.20;;
78312;SDS011;67568;47.438;21.408;2023-07-13T11:59:23;7.07;;;3.50;;
78312;SDS011;67568;47.438;21.408;2023-07-13T12:01:54;5.87;;;2.83;;
78312;SDS011;67568;47.438;21.408;2023-07-13T12:04:22;6.43;;;2.85;;
78312;SDS011;67568;47.438;21.408;2023-07-13T12:06:55;6.45;;;2.90;;
78312;SDS011;67568;47.438;21.408;2023-07-13T12:09:34;7.68;;;2.80;;
78312;SDS011;67568;47.438;21.408;2023-07-13T12:12:01;8.00;;;3.35;;
78312;SDS011;67568;47.438;21.408;2023-07-13T12:14:28;5.97;;;3.20;;
78312;SDS011;67568;47.438;21.408;2023-07-13T12:16:55;5.68;;;2.95;;
78312;SDS011;67568;47.438;21.408;2023-07-13T12:19:26;7.38;;;3.00;;
78312;SDS011;67568;47.438;21.408;2023-07-13T12:21:57;7.78;;;3.20;;
78312;SDS011;67568;47.438;21.408;2023-07-13T12:24:27;8.30;;;3.22;;
78312;SDS011;67568;47.438;21.408;2023-07-13T12:26:59;6.80;;;2.90;;
78312;SDS011;67568;47.438;21.408;2023-07-13T12:29:32;7.60;;;3.30;;
78312;SDS011;67568;47.438;21.408;2023-07-13T12:31:59;6.95;;;3.35;;
78312;SDS011;67568;47.438;21.408;2023-07-13T12:34:26;7.32;;;3.10;;
78312;SDS011;67568;47.438;21.408;2023-07-13T12:37:02;6.05;;;3.15;;
78312;SDS011;67568;47.438;21.408;2023-07-13T12:39:33;6.53;;;2.80;;
78312;SDS011;67568;47.438;21.408;2023-07-13T12:42:22;8.43;;;2.72;;
78312;SDS011;67568;47.438;21.408;2023-07-13T12:44:56;6.80;;;2.90;;
78312;SDS011;67568;47.438;21.408;2023-07-13T12:47:41;7.18;;;3.10;;
78312;SDS011;67568;47.438;21.408;2023-07-13T12:50:14;5.95;;;2.97;;
78312;SDS011;67568;47.438;21.408;2023-07-13T12:52:43;8.57;;;3.07;;
78312;SDS011;67568;47.438;21.408;2023-07-13T12:55:17;7.88;;;2.80;;
78312;SDS011;67568;47.438;21.408;2023-07-13T12:57:56;6.65;;;2.70;;
78312;SDS011;67568;47.438;21.408;2023-07-13T13:00:26;8.38;;;3.00;;
78312;SDS011;67568;47.438;21.408;2023-07-13T13:03:05;10.85;;;3.15;;
78312;SDS011;67568;47.438;21.408;2023-07-13T13:06:35;6.83;;;2.77;;
78312;SDS011;67568;47.438;21.408;2023-07-13T13:08:43;5.25;;;2.67;;
78312;SDS011;67568;47.438;21.408;2023-07-13T13:11:18;8.65;;;2.60;;
78312;SDS011;67568;47.438;21.408;2023-07-13T13:13:46;6.53;;;2.65;;
78312;SDS011;67568;47.438;21.408;2023-07-13T13:18:55;5.27;;;2.30;;
78312;SDS011;67568;47.438;21.408;2023-07-13T13:21:23;7.53;;;2.72;;
78312;SDS011;67568;47.438;21.408;2023-07-13T13:23:50;5.63;;;2.72;;
78312;SDS011;67568;47.438;21.408;2023-07-13T13:26:17;7.28;;;2.70;;
78312;SDS011;67568;47.438;21.408;2023-07-13T13:28:45;9.68;;;2.92;;
78312;SDS011;67568;47.438;21.408;2023-07-13T13:31:16;7.77;;;2.40;;
78312;SDS011;67568;47.438;21.408;2023-07-13T13:33:43;7.93;;;2.70;;
78312;SDS011;67568;47.438;21.408;2023-07-13T13:36:16;5.35;;;2.40;;
78312;SDS011;67568;47.438;21.408;2023-07-13T13:38:44;5.90;;;2.35;;
78312;SDS011;67568;47.438;21.408;2023-07-13T13:41:12;7.13;;;2.70;;
78312;SDS011;67568;47.438;21.408;2023-07-13T13:43:40;6.77;;;2.50;;
78312;SDS011;67568;47.438;21.408;2023-07-13T13:46:13;8.20;;;2.53;;
78312;SDS011;67568;47.438;21.408;2023-07-13T13:48:43;11.18;;;2.45;;
78312;SDS011;67568;47.438;21.408;2023-07-13T13:51:16;6.53;;;2.22;;
78312;SDS011;67568;47.438;21.408;2023-07-13T13:53:45;5.72;;;2.10;;
78312;SDS011;67568;47.438;21.408;2023-07-13T13:56:13;5.70;;;2.10;;
78312;SDS011;67568;47.438;21.408;2023-07-13T13:58:44;4.93;;;2.08;;
78312;SDS011;67568;47.438;21.408;2023-07-13T14:01:16;5.88;;;2.20;;
78312;SDS011;67568;47.438;21.408;2023-07-13T14:03:45;5.40;;;2.42;;
78312;SDS011;67568;47.438;21.408;2023-07-13T14:06:13;6.22;;;2.20;;
78312;SDS011;67568;47.438;21.408;2023-07-13T14:08:40;5.50;;;2.30;;
78312;SDS011;67568;47.438;21.408;2023-07-13T14:11:11;5.28;;;2.03;;
78312;SDS011;67568;47.438;21.408;2023-07-13T14:13:43;6.53;;;2.20;;
78312;SDS011;67568;47.438;21.408;2023-07-13T14:16:19;7.82;;;2.42;;
78312;SDS011;67568;47.438;21.408;2023-07-13T14:18:48;6.28;;;2.30;;
78312;SDS011;67568;47.438;21.408;2023-07-13T14:21:19;7.10;;;2.30;;
78312;SDS011;67568;47.438;21.408;2023-07-13T14:23:50;6.43;;;2.15;;
78312;SDS011;67568;47.438;21.408;2023-07-13T14:26:18;8.60;;;2.10;;
78312;SDS011;67568;47.438;21.408;2023-07-13T14:28:52;5.30;;;1.90;;
78312;SDS011;67568;47.438;21.408;2023-07-13T14:31:20;5.97;;;1.95;;
78312;SDS011;67568;47.438;21.408;2023-07-13T14:33:54;8.50;;;2.37;;
78312;SDS011;67568;47.438;21.408;2023-07-13T14:36:23;6.20;;;2.20;;
78312;SDS011;67568;47.438;21.408;2023-07-13T14:38:54;6.72;;;2.30;;
78312;SDS011;67568;47.438;21.408;2023-07-13T14:41:21;6.95;;;2.20;;
78312;SDS011;67568;47.438;21.408;2023-07-13T14:43:48;4.35;;;1.98;;
78312;SDS011;67568;47.438;21.408;2023-07-13T14:49:16;6.30;;;2.00;;
78312;SDS011;67568;47.438;21.408;2023-07-13T14:51:50;5.22;;;1.83;;
78312;SDS011;67568;47.438;21.408;2023-07-13T14:54:17;5.68;;;1.98;;
78312;SDS011;67568;47.438;21.408;2023-07-13T14:56:44;5.15;;;1.90;;
78312;SDS011;67568;47.438;21.408;2023-07-13T14:59:10;6.50;;;2.20;;
78312;SDS011;67568;47.438;21.408;2023-07-13T15:01:37;5.78;;;2.00;;
78312;SDS011;67568;47.438;21.408;2023-07-13T15:04:08;6.15;;;1.95;;
78312;SDS011;67568;47.438;21.408;2023-07-13T15:06:52;4.05;;;1.63;;
78312;SDS011;67568;47.438;21.408;2023-07-13T15:09:20;4.35;;;1.80;;
78312;SDS011;67568;47.438;21.408;2023-07-13T15:11:46;6.20;;;2.10;;
78312;SDS011;67568;47.438;21.408;2023-07-13T15:14:13;7.43;;;1.98;;
78312;SDS011;67568;47.438;21.408;2023-07-13T15:16:40;5.22;;;2.40;;
78312;SDS011;67568;47.438;21.408;2023-07-13T15:19:08;4.78;;;2.10;;
78312;SDS011;67568;47.438;21.408;2023-07-13T15:21:36;6.45;;;2.25;;
78312;SDS011;67568;47.438;21.408;2023-07-13T15:24:03;7.60;;;1.80;;
78312;SDS011;67568;47.438;21.408;2023-07-13T15:26:30;6.57;;;1.90;;
78312;SDS011;67568;47.438;21.408;2023-07-13T15:28:57;6.05;;;1.95;;
78312;SDS011;67568;47.438;21.408;2023-07-13T15:31:27;5.68;;;1.98;;
78312;SDS011;67568;47.438;21.408;2023-07-13T15:33:55;6.13;;;2.08;;
78312;SDS011;67568;47.438;21.408;2023-07-13T15:36:23;6.70;;;2.00;;
78312;SDS011;67568;47.438;21.408;2023-07-13T15:38:52;4.88;;;1.90;;
78312;SDS011;67568;47.438;21.408;2023-07-13T15:41:27;5.25;;;1.90;;
78312;SDS011;67568;47.438;21.408;2023-07-13T15:43:57;6.30;;;1.83;;
78312;SDS011;67568;47.438;21.408;2023-07-13T15:46:25;6.15;;;1.67;;
78312;SDS011;67568;47.438;21.408;2023-07-13T15:48:54;4.73;;;1.73;;
78312;SDS011;67568;47.438;21.408;2023-07-13T15:51:24;5.10;;;2.00;;
78312;SDS011;67568;47.438;21.408;2023-07-13T15:53:59;5.68;;;2.00;;
78312;SDS011;67568;47.438;21.408;2023-07-13T15:56:28;5.60;;;1.77;;
78312;SDS011;67568;47.438;21.408;2023-07-13T15:58:56;4.43;;;1.60;;
78312;SDS011;67568;47.438;21.408;2023-07-13T16:01:23;4.70;;;1.80;;
78312;SDS011;67568;47.438;21.408;2023-07-13T16:03:51;5.70;;;1.95;;
78312;SDS011;67568;47.438;21.408;2023-07-13T16:06:25;4.00;;;1.67;;
78312;SDS011;67568;47.438;21.408;2023-07-13T16:08:56;6.47;;;2.00;;
78312;SDS011;67568;47.438;21.408;2023-07-13T16:11:26;5.40;;;2.08;;
78312;SDS011;67568;47.438;21.408;2023-07-13T16:13:58;5.00;;;1.90;;
78312;SDS011;67568;47.438;21.408;2023-07-13T16:16:29;7.57;;;2.28;;
78312;SDS011;67568;47.438;21.408;2023-07-13T16:19:01;4.90;;;1.92;;
78312;SDS011;67568;47.438;21.408;2023-07-13T16:21:35;6.10;;;1.60;;
78312;SDS011;67568;47.438;21.408;2023-07-13T16:24:16;4.88;;;1.90;;
78312;SDS011;67568;47.438;21.408;2023-07-13T16:26:48;5.93;;;2.00;;
78312;SDS011;67568;47.438;21.408;2023-07-13T16:29:19;5.75;;;2.00;;
78312;SDS011;67568;47.438;21.408;2023-07-13T16:34:30;5.30;;;1.70;;
78312;SDS011;67568;47.438;21.408;2023-07-13T16:36:58;4.68;;;1.70;;
78312;SDS011;67568;47.438;21.408;2023-07-13T16:39:26;3.47;;;1.50;;
78312;SDS011;67568;47.438;21.408;2023-07-13T16:41:54;6.13;;;1.75;;
78312;SDS011;67568;47.438;21.408;2023-07-13T16:44:22;4.82;;;1.80;;
78312;SDS011;67568;47.438;21.408;2023-07-13T16:46:53;5.38;;;2.00;;
78312;SDS011;67568;47.438;21.408;2023-07-13T16:49:31;4.57;;;1.70;;
78312;SDS011;67568;47.438;21.408;2023-07-13T16:52:00;5.60;;;1.70;;
78312;SDS011;67568;47.438;21.408;2023-07-13T16:54:31;5.30;;;1.83;;
78312;SDS011;67568;47.438;21.408;2023-07-13T16:57:00;4.95;;;1.80;;
78312;SDS011;67568;47.438;21.408;2023-07-13T16:59:32;5.32;;;1.88;;
78312;SDS011;67568;47.438;21.408;2023-07-13T17:02:00;4.20;;;1.50;;
78312;SDS011;67568;47.438;21.408;2023-07-13T17:04:29;5.43;;;1.80;;
78312;SDS011;67568;47.438;21.408;2023-07-13T17:06:56;5.35;;;1.95;;
78312;SDS011;67568;47.438;21.408;2023-07-13T17:09:26;4.35;;;1.90;;
78312;SDS011;67568;47.438;21.408;2023-07-13T17:11:53;4.80;;;1.92;;
78312;SDS011;67568;47.438;21.408;2023-07-13T17:14:22;4.75;;;1.90;;
78312;SDS011;67568;47.438;21.408;2023-07-13T17:16:50;6.40;;;2.10;;
78312;SDS011;67568;47.438;21.408;2023-07-13T17:19:21;4.43;;;2.00;;
78312;SDS011;67568;47.438;21.408;2023-07-13T17:21:52;5.30;;;1.90;;
78312;SDS011;67568;47.438;21.408;2023-07-13T17:24:20;5.93;;;2.20;;
78312;SDS011;67568;47.438;21.408;2023-07-13T17:26:49;4.63;;;1.88;;
78312;SDS011;67568;47.438;21.408;2023-07-13T17:29:20;6.63;;;1.90;;
78312;SDS011;67568;47.438;21.408;2023-07-13T17:31:47;5.90;;;2.33;;
78312;SDS011;67568;47.438;21.408;2023-07-13T17:34:17;6.15;;;2.17;;
78312;SDS011;67568;47.438;21.408;2023-07-13T17:36:46;6.22;;;2.30;;
78312;SDS011;67568;47.438;21.408;2023-07-13T17:39:14;5.00;;;2.13;;
78312;SDS011;67568;47.438;21.408;2023-07-13T17:41:44;4.90;;;2.00;;
78312;SDS011;67568;47.438;21.408;2023-07-13T17:44:11;6.20;;;2.28;;
78312;SDS011;67568;47.438;21.408;2023-07-13T17:46:39;3.80;;;1.73;;
78312;SDS011;67568;47.438;21.408;2023-07-13T17:49:23;6.25;;;2.10;;